Time;durP1;ratioP1;P1;durP2;ratioP2;P2;SDS_P1;SDS_P2;PMS_P1;PMS_P2;Temp;Humidity;BMP_temperature;BMP_pressure;BME280_temperature;BME280_humidity;BME280_pressure;Samples;Min_cycle;Max_cycle;Signal;HPM_P1;HPM_P2
2022/04/05 00:02:17;;;;;;;1.90;0.63;;;8.80;99.90;;;8.76;86.73;99961.09;5185572;28;20418;-67
2022/04/05 00:04:49;;;;;;;0.70;0.70;;;8.80;99.90;;;8.79;87.39;99979.34;5185693;28;20049;-67
2022/04/05 00:07:21;;;;;;;0.65;0.63;;;8.80;99.90;;;8.78;87.47;99966.31;5185809;28;20483;-67
2022/04/05 00:09:53;;;;;;;0.68;0.68;;;8.80;99.90;;;8.81;87.71;99962.13;5185615;28;20402;-67
2022/04/05 00:12:26;;;;;;;0.70;0.68;;;8.80;99.90;;;8.82;87.68;99969.06;5185323;28;20141;-67
2022/04/05 00:14:58;;;;;;;0.80;0.75;;;8.80;99.90;;;8.83;88.17;99959.56;5185816;28;20046;-67
2022/04/05 00:17:30;;;;;;;0.95;0.80;;;8.80;99.90;;;8.81;88.39;99962.13;5185831;28;20046;-67
2022/04/05 00:20:02;;;;;;;0.77;0.77;;;8.80;99.90;;;8.82;88.63;99969.06;5185387;28;20387;-67
2022/04/05 00:22:35;;;;;;;0.68;0.57;;;8.80;99.90;;;8.82;89.32;99974.25;5185097;28;20053;-68
2022/04/05 00:25:08;;;;;;;0.80;0.77;;;8.90;99.90;;;8.81;88.84;99967.31;5185269;28;20054;-67
2022/04/05 00:27:42;;;;;;;0.70;0.70;;;8.80;99.90;;;8.81;89.13;99967.31;5185555;28;20453;-67
2022/04/05 00:30:14;;;;;;;1.23;0.80;;;8.90;99.90;;;8.84;89.40;99962.19;5185426;28;20046;-67
2022/04/05 00:32:46;;;;;;;0.73;0.70;;;8.80;99.90;;;8.82;89.25;99966.47;5185011;28;20059;-67
2022/04/05 00:35:18;;;;;;;0.80;0.80;;;8.80;99.90;;;8.85;89.91;99969.13;5185140;28;20046;-67
2022/04/05 00:37:50;;;;;;;1.85;0.95;;;8.80;99.90;;;8.87;89.98;99966.63;5185173;28;20065;-67
2022/04/05 00:40:22;;;;;;;0.70;0.68;;;8.80;99.90;;;8.85;89.81;99968.25;5185212;28;20042;-67
2022/04/05 00:42:55;;;;;;;1.25;0.88;;;8.80;99.90;;;8.86;90.18;99957.91;5185237;28;20065;-67
2022/04/05 00:45:27;;;;;;;1.13;0.80;;;8.90;99.90;;;8.87;90.86;99951.91;5185337;28;20054;-67
2022/04/05 00:48:00;;;;;;;2.45;0.80;;;8.90;99.90;;;8.88;90.83;99953.66;5185049;28;20405;-67
2022/04/05 00:50:36;;;;;;;1.48;1.00;;;8.90;99.90;;;8.88;91.14;99958.84;5185157;28;20072;-67
2022/04/05 00:53:09;;;;;;;3.15;1.27;;;8.90;99.90;;;8.90;91.24;99962.38;5184771;28;20057;-67
2022/04/05 00:55:42;;;;;;;1.38;1.13;;;8.90;99.90;;;8.92;91.88;99950.28;5185110;28;20497;-67
2022/04/05 00:58:17;;;;;;;1.00;0.90;;;8.90;99.90;;;8.93;92.24;99958.94;5185041;28;20056;-67
2022/04/05 01:00:50;;;;;;;1.10;1.00;;;8.90;99.90;;;8.94;92.39;99953.81;5184365;28;20132;-67
2022/04/05 01:03:22;;;;;;;1.27;1.08;;;8.90;99.90;;;8.98;92.45;99958.25;5184051;28;20046;-67
2022/04/05 01:05:55;;;;;;;1.67;1.20;;;9.00;99.90;;;9.01;92.59;99951.41;5184896;28;20384;-67
2022/04/05 01:08:28;;;;;;;1.83;1.33;;;9.00;99.90;;;9.02;93.01;99955.75;5184723;28;20050;-67
2022/04/05 01:11:01;;;;;;;2.67;1.48;;;9.00;99.90;;;9.01;93.14;99946.19;5184569;28;20046;-67
2022/04/05 01:13:35;;;;;;;1.73;1.27;;;9.00;99.90;;;9.02;93.05;99953.16;5184566;28;20160;-67
2022/04/05 01:16:07;;;;;;;1.42;1.08;;;9.00;99.90;;;9.02;93.15;99955.75;5184391;28;20140;-67
2022/04/05 01:18:39;;;;;;;1.40;1.10;;;9.10;99.90;;;9.03;93.73;99957.50;5184860;28;20056;-67
2022/04/05 01:21:11;;;;;;;1.45;1.10;;;9.00;99.90;;;9.02;93.54;99943.63;5184423;28;20046;-67
2022/04/05 01:24:06;;;;;;;2.22;1.20;;;9.00;99.90;;;9.05;93.57;99951.50;5184303;28;20144;-67
2022/04/05 01:26:41;;;;;;;2.97;1.30;;;9.00;99.90;;;9.09;93.47;99952.47;5184373;28;20054;-67
2022/04/05 01:29:14;;;;;;;2.03;1.13;;;9.10;99.90;;;9.11;93.71;99956.88;5184648;28;20046;-67
2022/04/05 01:31:48;;;;;;;1.27;1.10;;;9.10;99.90;;;9.09;93.80;99955.06;5184093;28;20049;-67
2022/04/05 01:34:23;;;;;;;1.40;1.20;;;9.10;99.90;;;9.07;93.51;99956.78;5184327;28;20060;-67
2022/04/05 01:36:58;;;;;;;2.05;1.23;;;9.10;99.90;;;9.09;93.40;99962.88;5185061;28;20136;-67
2022/04/05 01:39:34;;;;;;;1.80;1.00;;;9.10;99.90;;;9.09;93.94;99957.69;5188639;28;20060;-67
2022/04/05 01:42:08;;;;;;;1.67;0.93;;;9.10;99.90;;;9.09;93.79;99944.69;5188488;28;20559;-67
2022/04/05 01:44:43;;;;;;;1.38;1.20;;;9.10;99.90;;;9.10;93.54;99943.84;5188301;28;20049;-67
2022/04/05 01:47:17;;;;;;;1.85;1.30;;;9.10;99.90;;;9.10;93.28;99952.50;5188229;28;20056;-67
2022/04/05 01:49:50;;;;;;;1.90;1.33;;;9.10;99.90;;;9.12;94.04;99955.16;5188272;28;20069;-67
2022/04/05 01:52:22;;;;;;;1.88;1.40;;;9.10;99.90;;;9.14;94.69;99949.16;5188147;28;20471;-67
2022/04/05 01:54:55;;;;;;;2.03;1.27;;;9.10;99.90;;;9.12;95.60;99945.63;5188181;28;20050;-67
2022/04/05 01:57:27;;;;;;;2.05;1.35;;;9.10;99.90;;;9.12;96.15;99942.16;5188325;28;20056;-67
2022/04/05 01:59:59;;;;;;;2.72;1.42;;;9.10;99.90;;;9.11;96.80;99938.66;5187727;28;20045;-67
2022/04/05 02:02:31;;;;;;;3.03;1.75;;;9.10;99.90;;;9.13;97.50;99943.94;5187873;28;20411;-67
2022/04/05 02:05:03;;;;;;;1.50;1.13;;;9.10;99.90;;;9.13;98.08;99949.13;5188298;28;20050;-67
2022/04/05 02:07:35;;;;;;;2.47;1.50;;;9.10;99.90;;;9.14;98.39;99941.38;5188109;28;20045;-67
2022/04/05 02:10:09;;;;;;;3.05;1.73;;;9.10;99.90;;;9.15;98.39;99934.44;5187503;28;20546;-67
2022/04/05 02:12:41;;;;;;;2.72;1.42;;;9.10;99.90;;;9.13;98.74;99939.63;5187677;28;20053;-67
2022/04/05 02:15:13;;;;;;;2.35;1.40;;;9.10;99.90;;;9.15;99.02;99939.66;5188144;28;20156;-67
2022/04/05 02:17:45;;;;;;;2.90;1.60;;;9.20;99.90;;;9.15;99.22;99937.94;5187887;28;20062;-67
2022/04/05 02:20:18;;;;;;;3.85;1.65;;;9.20;99.90;;;9.14;99.99;99935.28;5188029;28;20050;-67
2022/04/05 02:22:50;;;;;;;2.35;1.30;;;9.20;99.90;;;9.17;100.00;99941.44;5187324;28;20140;-67
2022/04/05 02:25:24;;;;;;;4.13;1.65;;;9.20;99.90;;;9.17;100.00;99937.97;5187957;28;20049;-68
2022/04/05 02:27:55;;;;;;;3.15;1.60;;;9.20;99.90;;;9.16;100.00;99938.81;5187222;28;20046;-67
2022/04/05 02:30:27;;;;;;;2.78;1.55;;;9.20;99.90;;;9.18;100.00;99934.50;5187549;28;20088;-67
2022/04/05 02:32:59;;;;;;;3.42;1.63;;;9.20;99.90;;;9.20;100.00;99941.53;5187317;28;20054;-67
2022/04/05 02:35:32;;;;;;;4.93;1.73;;;9.20;99.90;;;9.19;100.00;99933.66;5187196;28;20057;-67
2022/04/05 02:38:04;;;;;;;2.75;2.00;;;9.20;99.90;;;9.21;100.00;99937.22;5187721;28;20479;-67
2022/04/05 02:40:38;;;;;;;4.22;1.58;;;9.20;99.90;;;9.19;100.00;99939.78;5187255;28;20041;-67
2022/04/05 02:43:11;;;;;;;3.13;1.50;;;9.20;99.90;;;9.20;100.00;99935.47;5186965;28;20054;-67
2022/04/05 02:45:42;;;;;;;3.88;1.70;;;9.20;99.90;;;9.20;100.00;99930.25;5187287;28;20089;-67
2022/04/05 02:48:14;;;;;;;3.53;1.80;;;9.20;99.90;;;9.21;100.00;99932.00;5187268;28;20427;-67
2022/04/05 02:50:46;;;;;;;3.60;2.00;;;9.20;99.90;;;9.22;100.00;99933.78;5187482;28;20426;-67
2022/04/05 02:53:19;;;;;;;3.10;1.80;;;9.20;99.90;;;9.22;100.00;99929.44;5186555;28;20050;-67
2022/04/05 02:55:52;;;;;;;3.10;1.98;;;9.20;99.90;;;9.24;100.00;99938.16;5186852;28;20051;-67
2022/04/05 02:58:25;;;;;;;3.03;1.73;;;9.20;99.90;;;9.24;100.00;99932.06;5187252;28;20538;-67
2022/04/05 03:00:57;;;;;;;3.63;1.95;;;9.20;99.90;;;9.22;100.00;99924.25;5187145;28;20483;-67
2022/04/05 03:03:29;;;;;;;3.10;1.95;;;9.20;99.90;;;9.25;100.00;99926.03;5186602;28;20495;-67
2022/04/05 03:06:01;;;;;;;2.38;1.58;;;9.20;99.90;;;9.26;100.00;99925.22;5187431;28;20635;-67
2022/04/05 03:08:33;;;;;;;3.65;2.05;;;9.20;99.90;;;9.26;100.00;99925.22;5186565;28;20046;-67
2022/04/05 03:11:06;;;;;;;4.20;1.95;;;9.30;99.90;;;9.26;100.00;99933.03;5186756;28;20057;-67
2022/04/05 03:13:39;;;;;;;3.83;2.22;;;9.30;99.90;;;9.28;100.00;99928.72;5186511;28;20423;-67
2022/04/05 03:16:11;;;;;;;3.15;1.98;;;9.30;99.90;;;9.29;100.00;99929.59;5186972;28;20054;-67
2022/04/05 03:18:45;;;;;;;4.43;2.35;;;9.30;99.90;;;9.28;100.00;99931.34;5186591;28;20406;-68
2022/04/05 03:21:18;;;;;;;4.22;2.30;;;9.30;99.90;;;9.29;100.00;99938.28;5186697;28;20495;-67
2022/04/05 03:23:49;;;;;;;5.75;2.30;;;9.30;99.90;;;9.30;100.00;99932.25;5186088;28;20491;-67
2022/04/05 03:26:23;;;;;;;6.10;2.33;;;9.30;99.90;;;9.32;100.00;99925.34;5186476;28;20054;-67
2022/04/05 03:28:55;;;;;;;3.45;1.63;;;9.30;99.90;;;9.34;100.00;99934.09;5186376;28;20053;-67
2022/04/05 03:31:27;;;;;;;4.18;2.05;;;9.30;99.90;;;9.36;100.00;99932.41;5186100;28;20054;-67
2022/04/05 03:33:59;;;;;;;10.25;2.88;;;9.30;99.90;;;9.37;100.00;99928.97;5186131;28;20054;-67
2022/04/05 03:36:31;;;;;;;6.05;3.08;;;9.30;99.90;;;9.38;100.00;99930.72;5186513;28;20060;-68
2022/04/05 03:39:03;;;;;;;7.38;3.15;;;9.40;99.90;;;9.38;100.00;99930.72;5186144;28;20046;-67
2022/04/05 03:41:36;;;;;;;6.22;2.65;;;9.40;99.90;;;9.40;100.00;99929.06;5185675;28;20414;-67
2022/04/05 03:44:08;;;;;;;6.00;3.00;;;9.40;99.90;;;9.42;100.00;99934.28;5186240;28;20046;-67
2022/04/05 03:46:40;;;;;;;7.13;2.80;;;9.30;99.90;;;9.41;100.00;99928.22;5186455;28;20045;-67
2022/04/05 03:49:12;;;;;;;7.30;2.97;;;9.40;99.90;;;9.41;100.00;99932.53;5186078;28;20141;-67
2022/04/05 03:51:44;;;;;;;8.18;3.78;;;9.40;99.90;;;9.42;100.00;99937.75;5185711;28;20045;-67
2022/04/05 03:54:16;;;;;;;7.28;3.75;;;9.40;99.90;;;9.44;100.00;99936.06;5185746;28;20050;-67
2022/04/05 03:56:49;;;;;;;9.05;3.80;;;9.40;99.90;;;9.43;100.00;99936.91;5186183;28;20068;-67
2022/04/05 03:59:21;;;;;;;6.60;3.22;;;9.40;99.90;;;9.46;100.00;99931.81;5185450;28;20487;-67
2022/04/05 04:01:53;;;;;;;8.25;4.38;;;9.40;99.90;;;9.46;100.00;99931.81;5185616;28;20046;-67
2022/04/05 04:04:25;;;;;;;9.00;3.50;;;9.50;99.90;;;9.48;100.00;99937.03;5185752;28;20054;-67
2022/04/05 04:06:58;;;;;;;7.72;3.70;;;9.40;99.90;;;9.48;100.00;99927.53;5185766;28;20056;-67
2022/04/05 04:09:30;;;;;;;8.85;3.40;;;9.50;99.90;;;9.49;100.00;99931.88;5185992;28;20478;-67
2022/04/05 04:12:04;;;;;;;8.60;4.25;;;9.50;99.90;;;9.51;100.00;99921.50;5185404;28;20068;-67
2022/04/05 04:14:36;;;;;;;8.48;3.85;;;9.50;99.90;;;9.51;100.00;99931.91;5185570;28;20049;-67
2022/04/05 04:17:08;;;;;;;8.43;4.07;;;9.50;99.90;;;9.51;100.00;99932.78;5185394;28;20054;-67
2022/04/05 04:19:40;;;;;;;8.50;4.18;;;9.50;99.90;;;9.52;100.00;99933.69;5185522;28;20062;-67
2022/04/05 04:22:12;;;;;;;7.47;3.80;;;9.50;99.90;;;9.52;100.00;99933.69;5185162;28;20068;-67
2022/04/05 04:24:44;;;;;;;10.10;4.07;;;9.50;99.90;;;9.53;100.00;99935.44;5185393;28;20046;-67
2022/04/05 04:27:17;;;;;;;9.73;3.83;;;9.50;99.90;;;9.54;100.00;99931.13;5185691;28;20052;-67
2022/04/05 04:29:49;;;;;;;10.90;4.53;;;9.50;99.90;;;9.54;100.00;99931.13;5185258;28;20057;-67
2022/04/05 04:32:21;;;;;;;9.32;4.22;;;9.50;99.90;;;9.57;100.00;99936.38;5185176;28;20049;-67
2022/04/05 04:34:53;;;;;;;10.65;4.22;;;9.50;99.90;;;9.57;100.00;99936.38;5227276;23;20049;-83
2022/04/05 04:37:25;;;;;;;8.52;4.05;;;9.50;99.90;;;9.57;100.00;99931.19;5227661;28;20522;-83
2022/04/05 04:39:57;;;;;;;8.75;4.03;;;9.50;99.90;;;9.58;100.00;99935.53;5229084;28;20049;-83
2022/04/05 04:42:32;;;;;;;11.73;4.22;;;9.50;99.90;;;9.60;100.00;99941.69;5229379;28;20056;-84
2022/04/05 04:45:05;;;;;;;11.80;4.60;;;9.50;99.90;;;9.61;100.00;99938.22;5229723;28;20392;-83
2022/04/05 04:47:37;;;;;;;12.63;5.30;;;9.50;99.90;;;9.61;100.00;99933.91;5234277;28;20517;-84
2022/04/05 04:50:11;;;;;;;10.65;4.60;;;9.60;99.90;;;9.62;100.00;99938.28;5231940;28;20422;-84
2022/04/05 04:52:43;;;;;;;12.20;4.90;;;9.60;99.90;;;9.63;100.00;99941.75;5232579;28;20076;-84
2022/04/05 04:55:15;;;;;;;13.10;4.90;;;9.60;99.90;;;9.61;100.00;99935.63;5232666;28;20056;-83
2022/04/05 04:57:48;;;;;;;14.38;5.68;;;9.60;99.90;;;9.66;100.00;99952.25;5233766;28;20045;-83
2022/04/05 05:00:20;;;;;;;13.73;5.72;;;9.60;99.90;;;9.65;100.00;99946.16;5232795;28;20051;-84
2022/04/05 05:02:52;;;;;;;13.98;5.85;;;9.60;99.90;;;9.64;100.00;99949.59;5237794;28;20045;-84
2022/04/05 05:05:24;;;;;;;12.63;5.50;;;9.60;99.90;;;9.66;100.00;99953.13;5242734;28;20048;-84
2022/04/05 05:07:58;;;;;;;12.95;4.93;;;9.60;99.90;;;9.68;100.00;99956.63;5241551;28;20059;-83
2022/04/05 05:10:30;;;;;;;12.98;5.55;;;9.70;99.90;;;9.69;100.00;99949.72;5235672;28;20053;-83
2022/04/05 05:13:04;;;;;;;14.60;6.03;;;9.60;99.90;;;9.71;100.00;99948.88;5230720;28;20059;-83
2022/04/05 05:15:36;;;;;;;14.23;6.05;;;9.70;99.90;;;9.75;100.00;99968.09;5230083;28;20124;-84
2022/04/05 05:18:08;;;;;;;14.50;6.35;;;9.70;99.90;;;9.75;100.00;99958.53;5230231;28;20048;-84
2022/04/05 05:20:40;;;;;;;14.25;6.10;;;9.70;99.90;;;9.75;100.00;99968.09;5230237;28;20054;-84
2022/04/05 05:23:12;;;;;;;14.40;5.78;;;9.70;99.90;;;9.74;100.00;99971.53;5228394;28;20052;-84
2022/04/05 05:25:45;;;;;;;15.60;5.70;;;9.70;99.90;;;9.72;100.00;99968.03;5230465;28;20052;-84
2022/04/05 05:28:18;;;;;;;10.02;4.75;;;9.70;99.90;;;9.72;100.00;99968.91;5230082;28;20056;-84
2022/04/05 05:30:50;;;;;;;14.48;5.25;;;9.70;99.90;;;9.74;100.00;99974.13;5230423;28;20045;-84
2022/04/05 05:33:22;;;;;;;12.02;5.13;;;9.60;99.90;;;9.75;100.00;99978.50;5229291;28;20063;-84
2022/04/05 05:35:54;;;;;;;16.02;5.72;;;9.70;99.90;;;9.74;100.00;99987.16;5229160;28;20045;-84
2022/04/05 05:38:26;;;;;;;11.30;5.03;;;9.70;99.90;;;9.76;100.00;99975.91;5228904;28;20057;-84
2022/04/05 05:40:58;;;;;;;13.02;5.72;;;9.70;99.90;;;9.78;100.00;99979.47;5229778;28;20045;-84
2022/04/05 05:43:32;;;;;;;11.10;4.70;;;9.70;99.90;;;9.80;100.00;99979.50;5229078;28;20056;-83
2022/04/05 05:46:04;;;;;;;13.13;5.93;;;9.70;99.90;;;9.80;100.00;99976.88;5229233;28;20057;-84
2022/04/05 05:48:36;;;;;;;16.23;6.70;;;9.70;99.90;;;9.72;100.00;99973.22;5229453;28;20105;-85
2022/04/05 05:51:08;;;;;;;12.25;5.20;;;9.70;99.90;;;9.80;100.00;99987.31;5229039;28;20064;-83
2022/04/05 05:53:40;;;;;;;7.75;4.22;;;9.70;99.90;;;9.83;100.00;99987.38;5229675;28;20049;-83
2022/04/05 05:56:12;;;;;;;9.45;4.55;;;9.80;99.90;;;9.83;100.00;99996.91;5230103;28;20056;-83
2022/04/05 05:58:46;;;;;;;11.07;4.13;;;9.80;99.90;;;9.86;100.00;99987.47;5229185;28;20437;-85
2022/04/05 06:01:18;;;;;;;10.60;4.43;;;9.80;99.90;;;9.88;100.00;99990.09;5229067;28;20053;-84
2022/04/05 06:03:50;;;;;;;9.90;4.45;;;9.80;99.90;;;9.89;100.00;99990.13;5229808;28;20044;-84
2022/04/05 06:06:22;;;;;;;9.27;3.97;;;9.80;99.90;;;9.88;100.00;99998.78;5229747;28;20083;-84
2022/04/05 06:08:54;;;;;;;11.18;4.47;;;9.80;99.90;;;9.90;100.00;99991.00;5231289;28;20045;-84
2022/04/05 06:11:26;;;;;;;11.05;4.60;;;9.80;99.90;;;9.94;100.00;100000.66;5229693;28;20056;-84
2022/04/05 06:14:00;;;;;;;12.60;4.32;;;9.80;99.90;;;9.93;100.00;99997.19;5230410;28;20643;-84
2022/04/05 06:16:32;;;;;;;10.98;4.43;;;9.90;99.90;;;9.88;100.00;99990.97;5231064;28;20433;-84
2022/04/05 06:19:04;;;;;;;11.70;4.25;;;9.90;99.90;;;9.96;100.00;100007.66;5228968;28;20048;-84
2022/04/05 06:21:36;;;;;;;9.75;4.38;;;9.90;99.90;;;9.98;100.00;100000.78;5228611;28;20049;-84
2022/04/05 06:24:08;;;;;;;10.23;4.65;;;9.90;99.90;;;9.99;100.00;99999.94;5231163;28;20106;-84
2022/04/05 06:26:40;;;;;;;10.18;4.50;;;9.90;99.90;;;10.00;100.00;100006.00;5233575;28;20048;-85
2022/04/05 06:29:13;;;;;;;10.18;3.92;;;9.90;99.90;;;10.03;100.00;100006.94;5232732;28;20083;-84
2022/04/05 06:31:45;;;;;;;10.52;4.90;;;9.90;99.90;;;10.05;100.00;100005.28;5232896;28;20049;-84
2022/04/05 06:34:17;;;;;;;11.40;4.80;;;10.00;99.90;;;10.05;100.00;100009.63;5232134;28;20045;-85
2022/04/05 06:36:49;;;;;;;8.75;4.07;;;10.00;99.90;;;10.04;100.00;100011.34;5231895;28;20071;-84
2022/04/05 06:39:21;;;;;;;10.45;3.97;;;10.00;99.90;;;10.06;100.00;100021.78;5232681;28;20060;-84
2022/04/05 06:41:53;;;;;;;7.88;3.63;;;10.00;99.90;;;10.05;100.00;100010.50;5232471;28;20092;-84
2022/04/05 06:44:27;;;;;;;8.15;3.80;;;10.00;99.90;;;10.06;100.00;100014.84;5232111;28;20044;-84
2022/04/05 06:46:59;;;;;;;7.72;3.25;;;10.00;99.90;;;10.10;100.00;100018.41;5232937;28;20047;-83
2022/04/05 06:49:31;;;;;;;8.05;3.53;;;10.00;99.90;;;10.11;100.00;100021.91;5232262;28;20056;-84
2022/04/05 06:52:03;;;;;;;8.63;3.25;;;10.00;99.90;;;10.08;100.00;100020.09;5232972;28;20060;-84
2022/04/05 06:54:35;;;;;;;7.93;3.40;;;10.00;99.90;;;10.00;100.00;100004.28;5232249;28;20053;-84
2022/04/05 06:57:07;;;;;;;4.45;2.20;;;10.00;99.90;;;10.10;100.00;100020.13;5231515;28;20564;-85
2022/04/05 06:59:40;;;;;;;5.28;2.72;;;10.00;99.90;;;10.11;100.00;100029.72;5231410;28;20071;-84
2022/04/05 07:02:12;;;;;;;8.13;3.33;;;10.00;99.90;;;10.11;100.00;100025.38;5230396;28;20073;-84
2022/04/05 07:04:44;;;;;;;6.18;2.65;;;10.00;99.90;;;10.13;100.00;100028.91;5230969;28;20123;-84
2022/04/05 07:07:17;;;;;;;7.20;3.03;;;10.00;99.90;;;10.15;100.00;100026.34;5231076;28;20422;-84
2022/04/05 07:09:49;;;;;;;5.88;2.88;;;10.10;99.90;;;10.17;100.00;100029.84;5230964;28;20053;-84
2022/04/05 07:12:23;;;;;;;7.00;2.88;;;10.10;99.90;;;10.18;100.00;100031.63;5230506;28;20055;-84
2022/04/05 07:14:56;;;;;;;3.60;1.45;;;10.10;99.90;;;10.20;100.00;100035.13;5231730;28;20053;-79
2022/04/05 07:17:28;;;;;;;1.30;0.88;;;10.10;99.90;;;10.65;92.91;100034.50;5228456;28;20045;-77
2022/04/05 07:20:00;;;;;;;2.55;1.13;;;10.50;99.90;;;11.55;85.74;100037.22;5228687;28;20075;-82
2022/04/05 07:22:32;;;;;;;2.47;1.40;;;11.40;99.90;;;12.20;82.70;100037.53;5229719;28;20103;-77
2022/04/05 07:25:05;;;;;;;4.05;2.45;;;12.10;99.90;;;12.58;83.75;100044.19;5235508;28;20060;-81
2022/04/05 07:27:37;;;;;;;3.58;2.05;;;12.60;99.90;;;12.36;85.55;100033.41;5237457;28;20053;-81
2022/04/05 07:30:11;;;;;;;4.80;2.13;;;12.60;99.90;;;12.05;87.79;100025.94;5233743;28;20526;-81
2022/04/05 07:32:46;;;;;;;2.90;1.67;;;12.40;99.90;;;11.75;90.18;100032.38;5232547;28;20052;-81
2022/04/05 07:35:18;;;;;;;3.35;1.70;;;12.00;99.90;;;11.52;92.27;100039.75;5232284;28;20518;-82
2022/04/05 07:37:51;;;;;;;3.80;2.03;;;11.80;99.90;;;11.35;94.28;100020.31;5235241;28;20049;-82
2022/04/05 07:40:25;;;;;;;4.47;2.13;;;11.60;99.90;;;11.24;95.82;100029.66;5234812;28;20056;-82
2022/04/05 07:42:57;;;;;;;4.43;2.00;;;11.40;99.90;;;11.14;96.82;100031.19;5235604;28;20521;-82
2022/04/05 07:45:30;;;;;;;5.15;2.40;;;11.20;99.90;;;11.08;97.81;100033.66;5235509;28;20055;-82
2022/04/05 07:48:02;;;;;;;5.28;2.45;;;11.10;99.90;;;11.02;98.94;100037.06;5235193;28;20053;-82
2022/04/05 07:50:34;;;;;;;6.30;2.50;;;11.00;99.90;;;10.95;99.96;100031.66;5233699;28;20045;-81
2022/04/05 07:53:06;;;;;;;6.60;2.30;;;10.90;99.90;;;10.90;100.00;100031.56;5234532;28;20056;-82
2022/04/05 07:55:39;;;;;;;4.95;2.20;;;10.90;99.90;;;10.85;100.00;100034.06;5235384;28;20527;-82
2022/04/05 07:58:11;;;;;;;5.25;2.28;;;10.80;99.90;;;10.83;100.00;100034.91;5232043;28;20438;-81
2022/04/05 08:00:44;;;;;;;5.63;2.65;;;10.80;99.90;;;10.77;100.00;100034.75;5234103;28;20060;-81
2022/04/05 08:03:17;;;;;;;6.93;2.80;;;10.70;99.90;;;10.72;100.00;100025.97;5235670;28;20048;-81
2022/04/05 08:05:49;;;;;;;5.35;3.08;;;10.70;99.90;;;10.73;100.00;100028.59;5235771;28;20085;-81
2022/04/05 08:08:21;;;;;;;5.88;2.70;;;10.70;99.90;;;10.73;100.00;100032.91;5234883;28;20308;-81
2022/04/05 08:10:53;;;;;;;6.57;2.80;;;10.70;99.90;;;10.75;100.00;100039.03;5237940;28;20029;-80
2022/04/05 08:13:26;;;;;;;6.25;2.70;;;10.60;99.90;;;10.72;100.00;100032.03;5246383;28;20135;-82
2022/04/05 08:15:59;;;;;;;5.55;2.45;;;10.60;99.90;;;10.72;100.00;100041.59;5246712;28;20052;-82
2022/04/05 08:18:31;;;;;;;5.75;2.58;;;10.60;99.90;;;10.70;100.00;100038.09;5244670;28;20045;-82
2022/04/05 08:21:03;;;;;;;5.60;2.78;;;10.60;99.90;;;10.68;100.00;100043.25;5244945;28;20068;-81
2022/04/05 08:23:35;;;;;;;5.90;3.13;;;10.60;99.90;;;10.71;100.00;100042.44;5249401;28;20067;-81
2022/04/05 08:26:07;;;;;;;6.13;2.80;;;10.60;99.90;;;10.71;100.00;100045.94;5249931;28;20059;-82
2022/04/05 08:28:39;;;;;;;5.80;2.78;;;10.60;99.90;;;10.73;100.00;100051.16;5242477;28;20056;-82
2022/04/05 08:31:12;;;;;;;7.55;3.22;;;10.60;99.90;;;10.76;100.00;100052.13;5236437;28;20044;-81
2022/04/05 08:33:44;;;;;;;6.07;2.97;;;10.70;99.90;;;10.79;100.00;100061.72;5234235;28;20321;-81
2022/04/05 08:36:16;;;;;;;7.25;3.75;;;10.60;99.90;;;10.81;100.00;100060.03;5231435;28;20053;-82
2022/04/05 08:38:48;;;;;;;7.47;3.50;;;10.70;99.90;;;10.81;100.00;100062.63;5231689;28;20419;-81
2022/04/05 08:41:21;;;;;;;6.88;3.03;;;10.70;99.90;;;10.83;100.00;100066.19;5230205;28;20430;-80
2022/04/05 08:43:53;;;;;;;6.72;3.47;;;10.70;99.90;;;10.83;100.00;100067.06;5230550;28;20060;-81
2022/04/05 08:46:28;;;;;;;10.05;4.10;;;10.70;99.90;;;10.86;100.00;100072.31;5230440;28;20048;-82
2022/04/05 08:49:00;;;;;;;10.35;4.85;;;10.70;99.90;;;10.92;100.00;100066.38;5230049;28;20139;-81
2022/04/05 08:51:32;;;;;;;12.10;5.05;;;10.80;99.90;;;10.97;100.00;100064.75;5231342;28;20128;-81
2022/04/05 08:54:04;;;;;;;12.82;5.55;;;10.80;99.90;;;11.04;100.00;100071.84;5231799;28;20521;-81
2022/04/05 08:56:36;;;;;;;10.32;4.55;;;10.90;99.90;;;11.08;100.00;100072.78;5229957;28;20045;-81
2022/04/05 08:59:08;;;;;;;11.75;5.72;;;10.90;99.90;;;11.16;100.00;100075.56;5229722;28;20053;-80
2022/04/05 09:01:42;;;;;;;11.52;5.72;;;11.00;99.90;;;11.21;100.00;100072.19;5230336;28;20056;-82
2022/04/05 09:04:14;;;;;;;15.70;6.18;;;11.10;99.90;;;11.26;100.00;100072.28;5230377;28;20052;-81
2022/04/05 09:06:46;;;;;;;15.05;6.45;;;11.10;99.90;;;11.32;100.00;100069.81;5230581;28;20441;-81
2022/04/05 09:09:19;;;;;;;15.95;6.60;;;11.20;99.90;;;11.36;100.00;100064.69;5230005;28;20423;-81
2022/04/05 09:11:53;;;;;;;16.85;7.22;;;11.20;99.90;;;11.43;100.00;100070.91;5229547;28;20132;-82
2022/04/05 09:14:27;;;;;;;15.00;7.05;;;11.20;99.90;;;11.46;100.00;100070.97;5229229;28;20049;-81
2022/04/05 09:17:09;;;;;;;18.35;7.72;;;11.30;99.90;;;11.49;100.00;100070.16;5230200;28;20049;-82
2022/04/05 09:19:45;;;;;;;14.38;7.15;;;11.30;99.90;;;11.50;100.00;100070.19;5229964;28;20060;-81
2022/04/05 09:22:32;;;;;;;17.48;8.15;;;11.40;99.90;;;11.61;100.00;100076.50;5229506;28;20049;-81
2022/04/05 09:25:06;;;;;;;17.52;8.13;;;11.40;99.90;;;11.67;100.00;100071.41;5229772;28;20048;-82
2022/04/05 09:27:47;;;;;;;16.48;7.88;;;11.50;99.90;;;11.78;100.00;100063.75;5230137;28;20415;-82
2022/04/05 09:30:21;;;;;;;19.45;8.48;;;11.60;99.90;;;11.85;100.00;100064.75;5229359;28;20124;-82
2022/04/05 09:32:55;;;;;;;16.70;7.88;;;11.60;99.90;;;11.88;100.00;100070.06;5229526;28;20410;-82
2022/04/05 09:35:30;;;;;;;18.20;8.27;;;11.60;99.90;;;11.95;100.00;100066.69;5229233;28;20049;-81
2022/04/05 09:38:12;;;;;;;16.80;8.57;;;11.70;99.90;;;11.98;100.00;100079.81;5229721;28;20503;-81
2022/04/05 09:40:44;;;;;;;17.38;8.35;;;11.80;99.90;;;11.95;100.00;100069.31;5229947;28;20507;-81
2022/04/05 09:43:16;;;;;;;18.33;8.60;;;11.80;99.90;;;11.95;100.00;100072.81;5229835;28;20053;-81
2022/04/05 09:45:51;;;;;;;17.33;8.73;;;11.80;99.90;;;11.91;100.00;100080.53;5230458;28;20479;-81
2022/04/05 09:48:27;;;;;;;17.73;8.35;;;11.70;99.90;;;11.91;100.00;100070.97;5231210;28;20135;-82
2022/04/05 09:51:06;;;;;;;15.82;8.07;;;11.80;99.90;;;11.87;100.00;100076.16;5231814;28;20041;-82
2022/04/05 09:53:51;;;;;;;18.35;8.48;;;11.80;99.90;;;11.84;100.00;100078.69;5230706;28;20071;-80
2022/04/05 09:56:26;;;;;;;14.45;7.72;;;11.70;99.90;;;11.81;100.00;100079.53;5230596;28;20513;-80
2022/04/05 09:59:04;;;;;;;14.10;7.30;;;11.70;99.90;;;11.80;100.00;100072.50;5233117;28;20471;-80
2022/04/05 10:01:37;;;;;;;15.88;7.80;;;11.70;99.90;;;11.87;100.00;100079.63;5233709;28;20049;-80
2022/04/05 10:04:12;;;;;;;14.30;7.00;;;11.70;99.90;;;11.89;100.00;100083.13;5234152;28;20169;-81
2022/04/05 10:06:47;;;;;;;13.32;6.68;;;11.70;99.90;;;11.90;100.00;100086.63;5234093;28;20498;-80
2022/04/05 10:09:21;;;;;;;18.45;7.18;;;11.70;99.90;;;11.90;100.00;100089.25;5234659;28;20049;-80
2022/04/05 10:11:55;;;;;;;11.95;5.90;;;11.70;99.90;;;11.92;100.00;100087.53;5234272;28;20048;-81
2022/04/05 10:14:27;;;;;;;12.30;6.60;;;11.70;99.90;;;11.86;100.00;100088.28;5233668;28;20430;-81
2022/04/05 10:16:59;;;;;;;13.07;6.30;;;11.70;99.90;;;11.85;100.00;100096.09;5233879;28;20112;-81
2022/04/05 10:19:35;;;;;;;11.95;6.28;;;11.70;99.90;;;11.83;100.00;100103.03;5234107;28;20056;-80
2022/04/05 10:22:08;;;;;;;13.32;6.65;;;11.70;99.90;;;11.81;100.00;100094.31;5233180;28;20087;-80
2022/04/05 10:24:40;;;;;;;12.00;6.50;;;11.70;99.90;;;11.78;100.00;100104.63;5233518;28;20049;-80
2022/04/05 10:27:13;;;;;;;14.43;6.53;;;11.70;99.90;;;11.72;100.00;100108.00;5233184;28;20049;-80
2022/04/05 10:29:46;;;;;;;14.95;7.72;;;11.60;99.90;;;11.68;100.00;100104.47;5232918;28;20075;-81
2022/04/05 10:32:34;;;;;;;12.52;6.47;;;11.60;99.90;;;11.68;100.00;100103.59;5232438;28;20056;-81
2022/04/05 10:35:09;;;;;;;16.05;6.80;;;11.60;99.90;;;11.72;100.00;100113.22;5371595;22;20076;-64
2022/04/05 10:37:42;;;;;;;13.02;6.15;;;11.60;99.90;;;11.61;100.00;100107.81;5200721;28;20455;-64
2022/04/05 10:40:20;;;;;;;16.15;7.30;;;11.50;99.90;;;11.59;100.00;100112.13;5207868;28;20049;-64
2022/04/05 10:42:53;;;;;;;18.15;7.95;;;11.50;99.90;;;11.56;100.00;100116.41;5207760;28;20042;-64